sensor_id;sensor_type;location;lat;lon;timestamp;pressure;altitude;pressure_sealevel;temperature;humidity
73633;BME280;61927;50.080;14.418;2024-02-14T00:01:04;99970.53;;;3.55;75.29
73633;BME280;61927;50.080;14.418;2024-02-14T00:03:38;99974.50;;;3.36;75.88
73633;BME280;61927;50.080;14.418;2024-02-14T00:06:05;99974.03;;;3.54;75.40
73633;BME280;61927;50.080;14.418;2024-02-14T00:08:31;99973.69;;;3.68;74.94
73633;BME280;61927;50.080;14.418;2024-02-14T00:10:57;99972.16;;;3.59;75.27
73633;BME280;61927;50.080;14.418;2024-02-14T00:13:22;99969.34;;;3.67;74.97
73633;BME280;61927;50.080;14.418;2024-02-14T00:15:48;99968.44;;;3.68;74.77
73633;BME280;61927;50.080;14.418;2024-02-14T00:18:14;99975.66;;;3.60;74.84
73633;BME280;61927;50.080;14.418;2024-02-14T00:20:40;99977.31;;;3.64;75.17
73633;BME280;61927;50.080;14.418;2024-02-14T00:23:06;99983.00;;;3.45;76.24
73633;BME280;61927;50.080;14.418;2024-02-14T00:25:31;99977.59;;;3.51;76.07
73633;BME280;61927;50.080;14.418;2024-02-14T00:27:57;99981.16;;;3.49;76.22
73633;BME280;61927;50.080;14.418;2024-02-14T00:30:26;99975.03;;;3.50;75.90
73633;BME280;61927;50.080;14.418;2024-02-14T00:32:52;99970.72;;;3.47;76.11
73633;BME280;61927;50.080;14.418;2024-02-14T00:35:17;99978.63;;;3.46;76.23
73633;BME280;61927;50.080;14.418;2024-02-14T00:37:43;99982.25;;;3.40;76.33
73633;BME280;61927;50.080;14.418;2024-02-14T00:40:09;99977.66;;;3.50;76.14
73633;BME280;61927;50.080;14.418;2024-02-14T00:42:35;99974.03;;;3.54;75.98
73633;BME280;61927;50.080;14.418;2024-02-14T00:45:02;99990.44;;;3.64;76.14
73633;BME280;61927;50.080;14.418;2024-02-14T00:47:28;99982.50;;;3.65;75.30
73633;BME280;61927;50.080;14.418;2024-02-14T00:49:54;99980.94;;;3.58;76.21
73633;BME280;61927;50.080;14.418;2024-02-14T00:52:19;99984.53;;;3.54;75.86
73633;BME280;61927;50.080;14.418;2024-02-14T00:54:47;99983.75;;;3.50;76.09
73633;BME280;61927;50.080;14.418;2024-02-14T00:57:12;99988.19;;;3.48;75.85
73633;BME280;61927;50.080;14.418;2024-02-14T00:59:38;99988.66;;;3.29;76.37
73633;BME280;61927;50.080;14.418;2024-02-14T01:02:04;99996.38;;;3.35;76.38
73633;BME280;61927;50.080;14.418;2024-02-14T01:04:30;99993.78;;;3.33;76.93
73633;BME280;61927;50.080;14.418;2024-02-14T01:06:55;99986.78;;;3.34;76.73
73633;BME280;61927;50.080;14.418;2024-02-14T01:09:21;99983.00;;;3.45;76.57
73633;BME280;61927;50.080;14.418;2024-02-14T01:11:47;99977.00;;;3.40;76.60
73633;BME280;61927;50.080;14.418;2024-02-14T01:14:14;99977.28;;;3.30;76.47
73633;BME280;61927;50.080;14.418;2024-02-14T01:16:43;99972.91;;;3.29;76.25
73633;BME280;61927;50.080;14.418;2024-02-14T01:19:10;99971.19;;;3.28;76.59
73633;BME280;61927;50.080;14.418;2024-02-14T01:21:35;99972.47;;;3.11;76.88
73633;BME280;61927;50.080;14.418;2024-02-14T01:24:01;99980.41;;;3.08;77.37
73633;BME280;61927;50.080;14.418;2024-02-14T01:26:26;99982.19;;;3.06;77.46
73633;BME280;61927;50.080;14.418;2024-02-14T01:28:52;99975.31;;;3.01;77.36
73633;BME280;61927;50.080;14.418;2024-02-14T01:31:17;99977.22;;;2.94;78.09
73633;BME280;61927;50.080;14.418;2024-02-14T01:33:43;99976.50;;;2.87;78.10
73633;BME280;61927;50.080;14.418;2024-02-14T01:36:11;99968.78;;;2.81;78.42
73633;BME280;61927;50.080;14.418;2024-02-14T01:38:36;99968.09;;;2.72;79.00
73633;BME280;61927;50.080;14.418;2024-02-14T01:41:05;99964.53;;;2.76;79.21
73633;BME280;61927;50.080;14.418;2024-02-14T01:43:31;99965.47;;;2.73;79.45
73633;BME280;61927;50.080;14.418;2024-02-14T01:46:05;99966.38;;;2.71;79.83
73633;BME280;61927;50.080;14.418;2024-02-14T01:48:31;99968.19;;;2.69;80.06
73633;BME280;61927;50.080;14.418;2024-02-14T01:50:57;99971.66;;;2.69;79.42
73633;BME280;61927;50.080;14.418;2024-02-14T01:53:23;99963.69;;;2.74;79.21
73633;BME280;61927;50.080;14.418;2024-02-14T01:55:51;99959.91;;;2.87;78.98
73633;BME280;61927;50.080;14.418;2024-02-14T01:58:17;99958.78;;;2.99;78.58
73633;BME280;61927;50.080;14.418;2024-02-14T02:00:43;99966.63;;;2.99;78.66
73633;BME280;61927;50.080;14.418;2024-02-14T02:03:09;99955.25;;;3.00;78.42
73633;BME280;61927;50.080;14.418;2024-02-14T02:05:36;99950.28;;;2.87;78.50
73633;BME280;61927;50.080;14.418;2024-02-14T02:08:01;99956.34;;;2.89;78.10
73633;BME280;61927;50.080;14.418;2024-02-14T02:10:27;99958.19;;;2.86;78.45
73633;BME280;61927;50.080;14.418;2024-02-14T02:12:58;99960.59;;;2.95;78.24
73633;BME280;61927;50.080;14.418;2024-02-14T02:15:25;99953.66;;;2.92;78.19
73633;BME280;61927;50.080;14.418;2024-02-14T02:17:52;99956.94;;;3.02;78.22
73633;BME280;61927;50.080;14.418;2024-02-14T02:20:18;99945.41;;;3.09;78.33
73633;BME280;61927;50.080;14.418;2024-02-14T02:22:48;99954.28;;;3.04;78.24
73633;BME280;61927;50.080;14.418;2024-02-14T02:25:14;99954.97;;;3.12;78.12
73633;BME280;61927;50.080;14.418;2024-02-14T02:27:39;99961.91;;;3.14;77.62
73633;BME280;61927;50.080;14.418;2024-02-14T02:30:06;99954.84;;;3.16;77.64
73633;BME280;61927;50.080;14.418;2024-02-14T02:32:32;99949.50;;;3.21;77.79
73633;BME280;61927;50.080;14.418;2024-02-14T02:34:58;99949.47;;;3.22;77.93
73633;BME280;61927;50.080;14.418;2024-02-14T02:37:25;99954.53;;;3.30;77.71
73633;BME280;61927;50.080;14.418;2024-02-14T02:39:51;99942.38;;;3.26;77.90
73633;BME280;61927;50.080;14.418;2024-02-14T02:42:17;99949.34;;;3.27;77.47
73633;BME280;61927;50.080;14.418;2024-02-14T02:44:46;99941.53;;;3.26;77.76
73633;BME280;61927;50.080;14.418;2024-02-14T02:47:12;99941.50;;;3.27;77.70
73633;BME280;61927;50.080;14.418;2024-02-14T02:49:38;99945.31;;;3.14;77.84
73633;BME280;61927;50.080;14.418;2024-02-14T02:52:04;99948.78;;;3.14;78.53
73633;BME280;61927;50.080;14.418;2024-02-14T02:54:29;99953.03;;;3.20;78.42
73633;BME280;61927;50.080;14.418;2024-02-14T02:56:55;99953.84;;;3.22;78.03
73633;BME280;61927;50.080;14.418;2024-02-14T02:59:20;99957.41;;;3.19;78.20
73633;BME280;61927;50.080;14.418;2024-02-14T03:01:47;99961.06;;;3.12;78.74
73633;BME280;61927;50.080;14.418;2024-02-14T03:04:15;99956.50;;;3.20;78.66
73633;BME280;61927;50.080;14.418;2024-02-14T03:06:40;99947.72;;;3.23;78.32
73633;BME280;61927;50.080;14.418;2024-02-14T03:09:09;99959.75;;;3.32;77.98
73633;BME280;61927;50.080;14.418;2024-02-14T03:11:34;99959.06;;;3.23;78.31
73633;BME280;61927;50.080;14.418;2024-02-14T03:14:02;99961.66;;;3.25;78.49
73633;BME280;61927;50.080;14.418;2024-02-14T03:16:28;99954.56;;;3.29;78.33
73633;BME280;61927;50.080;14.418;2024-02-14T03:18:54;99954.72;;;3.22;78.52
73633;BME280;61927;50.080;14.418;2024-02-14T03:21:20;99956.66;;;3.14;78.27
73633;BME280;61927;50.080;14.418;2024-02-14T03:23:45;99954.97;;;3.12;78.55
73633;BME280;61927;50.080;14.418;2024-02-14T03:26:11;99959.19;;;3.17;78.46
73633;BME280;61927;50.080;14.418;2024-02-14T03:28:36;99956.63;;;3.16;78.36
73633;BME280;61927;50.080;14.418;2024-02-14T03:31:02;99948.94;;;3.08;78.58
73633;BME280;61927;50.080;14.418;2024-02-14T03:33:28;99956.03;;;3.03;78.73
73633;BME280;61927;50.080;14.418;2024-02-14T03:35:54;99954.91;;;3.15;78.85
73633;BME280;61927;50.080;14.418;2024-02-14T03:38:27;99946.84;;;3.22;78.22
73633;BME280;61927;50.080;14.418;2024-02-14T03:40:52;99955.09;;;3.06;78.79
73633;BME280;61927;50.080;14.418;2024-02-14T03:43:18;99947.94;;;3.14;78.24
73633;BME280;61927;50.080;14.418;2024-02-14T03:45:43;99961.34;;;3.00;77.90
73633;BME280;61927;50.080;14.418;2024-02-14T03:48:09;99959.66;;;2.98;78.30
73633;BME280;61927;50.080;14.418;2024-02-14T03:50:40;99957.31;;;2.85;78.37
73633;BME280;61927;50.080;14.418;2024-02-14T03:53:06;99951.28;;;2.82;78.92
73633;BME280;61927;50.080;14.418;2024-02-14T03:55:31;99948.75;;;2.79;79.30
73633;BME280;61927;50.080;14.418;2024-02-14T03:57:57;99950.56;;;2.75;79.43
73633;BME280;61927;50.080;14.418;2024-02-14T04:00:23;99949.06;;;2.64;79.95
73633;BME280;61927;50.080;14.418;2024-02-14T04:02:49;99949.00;;;2.67;79.91
73633;BME280;61927;50.080;14.418;2024-02-14T04:05:16;99942.94;;;2.65;79.87
73633;BME280;61927;50.080;14.418;2024-02-14T04:07:41;99940.31;;;2.65;80.40
73633;BME280;61927;50.080;14.418;2024-02-14T04:10:09;99949.09;;;2.62;80.26
73633;BME280;61927;50.080;14.418;2024-02-14T04:12:35;99947.34;;;2.63;80.58
73633;BME280;61927;50.080;14.418;2024-02-14T04:15:01;99936.69;;;2.70;80.59
73633;BME280;61927;50.080;14.418;2024-02-14T04:17:26;99934.88;;;2.74;80.34
73633;BME280;61927;50.080;14.418;2024-02-14T04:19:52;99943.50;;;2.79;80.52
73633;BME280;61927;50.080;14.418;2024-02-14T04:22:17;99941.13;;;2.68;80.31
73633;BME280;61927;50.080;14.418;2024-02-14T04:24:43;99938.31;;;2.76;80.06
73633;BME280;61927;50.080;14.418;2024-02-14T04:27:08;99945.47;;;2.69;80.47
73633;BME280;61927;50.080;14.418;2024-02-14T04:29:34;99949.66;;;2.76;80.76
73633;BME280;61927;50.080;14.418;2024-02-14T04:32:00;99948.88;;;2.73;80.66
73633;BME280;61927;50.080;14.418;2024-02-14T04:34:26;99940.94;;;2.76;80.80
73633;BME280;61927;50.080;14.418;2024-02-14T04:36:52;99946.25;;;2.73;80.74
73633;BME280;61927;50.080;14.418;2024-02-14T04:39:17;99944.53;;;2.72;80.65
73633;BME280;61927;50.080;14.418;2024-02-14T04:41:43;99942.56;;;2.81;80.20
73633;BME280;61927;50.080;14.418;2024-02-14T04:44:09;99934.53;;;2.89;80.74
73633;BME280;61927;50.080;14.418;2024-02-14T04:46:34;99933.69;;;2.87;80.08
73633;BME280;61927;50.080;14.418;2024-02-14T04:49:01;99941.59;;;2.85;80.39
73633;BME280;61927;50.080;14.418;2024-02-14T04:51:29;99934.47;;;2.92;80.26
73633;BME280;61927;50.080;14.418;2024-02-14T04:53:55;99934.66;;;2.83;80.37
73633;BME280;61927;50.080;14.418;2024-02-14T04:56:24;99932.81;;;2.88;80.54
73633;BME280;61927;50.080;14.418;2024-02-14T04:58:52;99938.94;;;2.87;80.55
73633;BME280;61927;50.080;14.418;2024-02-14T05:01:17;99941.56;;;2.87;80.88
73633;BME280;61927;50.080;14.418;2024-02-14T05:03:43;99938.91;;;2.88;80.97
73633;BME280;61927;50.080;14.418;2024-02-14T05:06:09;99937.03;;;2.94;80.99
73633;BME280;61927;50.080;14.418;2024-02-14T05:08:35;99938.59;;;3.02;80.31
73633;BME280;61927;50.080;14.418;2024-02-14T05:11:00;99930.72;;;3.02;80.07
73633;BME280;61927;50.080;14.418;2024-02-14T05:13:27;99937.75;;;3.00;80.16
73633;BME280;61927;50.080;14.418;2024-02-14T05:15:52;99946.31;;;3.08;80.70
73633;BME280;61927;50.080;14.418;2024-02-14T05:18:18;99947.19;;;3.09;80.09
73633;BME280;61927;50.080;14.418;2024-02-14T05:20:44;99938.53;;;3.05;80.34
73633;BME280;61927;50.080;14.418;2024-02-14T05:23:10;99944.66;;;3.04;80.93
73633;BME280;61927;50.080;14.418;2024-02-14T05:25:36;99950.44;;;3.18;80.17
73633;BME280;61927;50.080;14.418;2024-02-14T05:28:02;99949.66;;;3.15;80.20
73633;BME280;61927;50.080;14.418;2024-02-14T05:30:27;99945.94;;;3.23;79.58
73633;BME280;61927;50.080;14.418;2024-02-14T05:32:54;99944.16;;;3.26;79.46
73633;BME280;61927;50.080;14.418;2024-02-14T05:35:21;99937.03;;;3.31;79.07
73633;BME280;61927;50.080;14.418;2024-02-14T05:37:47;99934.56;;;3.24;79.52
73633;BME280;61927;50.080;14.418;2024-02-14T05:40:15;99942.31;;;3.29;79.13
73633;BME280;61927;50.080;14.418;2024-02-14T05:42:41;99943.22;;;3.28;78.72
73633;BME280;61927;50.080;14.418;2024-02-14T05:45:07;99937.59;;;3.43;78.43
73633;BME280;61927;50.080;14.418;2024-02-14T05:47:35;99940.38;;;3.37;78.30
73633;BME280;61927;50.080;14.418;2024-02-14T05:50:01;99942.72;;;3.48;78.59
73633;BME280;61927;50.080;14.418;2024-02-14T05:52:27;99945.16;;;3.55;78.35
73633;BME280;61927;50.080;14.418;2024-02-14T05:54:52;99940.25;;;3.42;78.45
73633;BME280;61927;50.080;14.418;2024-02-14T05:57:18;99941.31;;;3.35;78.69
73633;BME280;61927;50.080;14.418;2024-02-14T05:59:43;99946.44;;;3.39;78.62
73633;BME280;61927;50.080;14.418;2024-02-14T06:02:09;99945.66;;;3.36;79.32
73633;BME280;61927;50.080;14.418;2024-02-14T06:04:35;99941.94;;;3.44;78.62
73633;BME280;61927;50.080;14.418;2024-02-14T06:07:01;99947.06;;;3.49;78.83
73633;BME280;61927;50.080;14.418;2024-02-14T06:09:28;99946.09;;;3.53;78.37
73633;BME280;61927;50.080;14.418;2024-02-14T06:11:53;99951.69;;;3.39;78.54
73633;BME280;61927;50.080;14.418;2024-02-14T06:14:19;99945.34;;;3.48;78.47
73633;BME280;61927;50.080;14.418;2024-02-14T06:16:45;99947.09;;;3.47;78.94
73633;BME280;61927;50.080;14.418;2024-02-14T06:19:10;99952.00;;;3.61;78.39
73633;BME280;61927;50.080;14.418;2024-02-14T06:21:37;99955.41;;;3.65;78.22
73633;BME280;61927;50.080;14.418;2024-02-14T06:24:02;99950.78;;;3.74;77.71
73633;BME280;61927;50.080;14.418;2024-02-14T06:26:31;99951.72;;;3.72;77.40
73633;BME280;61927;50.080;14.418;2024-02-14T06:28:57;99950.66;;;3.45;78.56
73633;BME280;61927;50.080;14.418;2024-02-14T06:31:23;99948.34;;;3.33;79.35
73633;BME280;61927;50.080;14.418;2024-02-14T06:33:49;99961.94;;;3.48;78.86
73633;BME280;61927;50.080;14.418;2024-02-14T06:36:15;99958.19;;;3.59;78.39
73633;BME280;61927;50.080;14.418;2024-02-14T06:38:40;99954.50;;;3.66;78.09
73633;BME280;61927;50.080;14.418;2024-02-14T06:41:06;99952.66;;;3.69;77.60
73633;BME280;61927;50.080;14.418;2024-02-14T06:43:32;99959.84;;;3.63;78.30
73633;BME280;61927;50.080;14.418;2024-02-14T06:45:57;99959.91;;;3.60;77.99
73633;BME280;61927;50.080;14.418;2024-02-14T06:48:23;99956.13;;;3.71;77.53
73633;BME280;61927;50.080;14.418;2024-02-14T06:50:50;99960.63;;;3.66;77.44
73633;BME280;61927;50.080;14.418;2024-02-14T06:53:16;99962.41;;;3.64;77.54
73633;BME280;61927;50.080;14.418;2024-02-14T06:55:41;99970.09;;;3.72;77.57
73633;BME280;61927;50.080;14.418;2024-02-14T06:58:07;99962.09;;;3.76;77.59
73633;BME280;61927;50.080;14.418;2024-02-14T07:00:33;99966.81;;;3.64;78.05
73633;BME280;61927;50.080;14.418;2024-02-14T07:02:58;99969.63;;;3.56;77.65
73633;BME280;61927;50.080;14.418;2024-02-14T07:05:24;99969.69;;;3.53;78.27
73633;BME280;61927;50.080;14.418;2024-02-14T07:07:51;99970.47;;;3.56;77.90
73633;BME280;61927;50.080;14.418;2024-02-14T07:10:17;99971.31;;;3.59;77.37
73633;BME280;61927;50.080;14.418;2024-02-14T07:12:42;99978.09;;;3.67;78.06
73633;BME280;61927;50.080;14.418;2024-02-14T07:15:08;99971.00;;;3.71;77.50
73633;BME280;61927;50.080;14.418;2024-02-14T07:17:33;99967.50;;;3.70;77.58
73633;BME280;61927;50.080;14.418;2024-02-14T07:19:59;99970.91;;;3.74;78.00
73633;BME280;61927;50.080;14.418;2024-02-14T07:22:25;99970.69;;;3.83;77.38
73633;BME280;61927;50.080;14.418;2024-02-14T07:24:50;99975.66;;;3.94;76.94
73633;BME280;61927;50.080;14.418;2024-02-14T07:27:16;99963.97;;;4.05;76.80
73633;BME280;61927;50.080;14.418;2024-02-14T07:29:42;99962.03;;;4.12;76.53
73633;BME280;61927;50.080;14.418;2024-02-14T07:32:08;99964.34;;;4.22;76.00
73633;BME280;61927;50.080;14.418;2024-02-14T07:34:33;99963.72;;;4.14;76.68
73633;BME280;61927;50.080;14.418;2024-02-14T07:36:59;99967.88;;;4.21;76.42
73633;BME280;61927;50.080;14.418;2024-02-14T07:39:24;99969.66;;;4.21;76.32
73633;BME280;61927;50.080;14.418;2024-02-14T07:41:51;99962.16;;;4.38;76.22
73633;BME280;61927;50.080;14.418;2024-02-14T07:44:17;99960.25;;;4.43;75.67
73633;BME280;61927;50.080;14.418;2024-02-14T07:46:43;99970.59;;;4.49;74.71
73633;BME280;61927;50.080;14.418;2024-02-14T07:49:08;99969.78;;;4.47;75.57
73633;BME280;61927;50.080;14.418;2024-02-14T07:51:35;99962.84;;;4.45;74.62
73633;BME280;61927;50.080;14.418;2024-02-14T07:54:03;99961.13;;;4.44;74.90
73633;BME280;61927;50.080;14.418;2024-02-14T07:56:29;99969.50;;;4.57;74.79
73633;BME280;61927;50.080;14.418;2024-02-14T07:58:55;99966.03;;;4.56;74.67
73633;BME280;61927;50.080;14.418;2024-02-14T08:01:20;99958.72;;;4.66;74.13
73633;BME280;61927;50.080;14.418;2024-02-14T08:03:46;99962.81;;;4.76;73.90
73633;BME280;61927;50.080;14.418;2024-02-14T08:06:13;99956.09;;;4.66;73.70
73633;BME280;61927;50.080;14.418;2024-02-14T08:08:38;99958.03;;;4.59;74.53
73633;BME280;61927;50.080;14.418;2024-02-14T08:11:04;99967.47;;;4.66;74.28
73633;BME280;61927;50.080;14.418;2024-02-14T08:13:30;99965.44;;;4.76;74.20
73633;BME280;61927;50.080;14.418;2024-02-14T08:15:55;99961.00;;;4.78;74.71
73633;BME280;61927;50.080;14.418;2024-02-14T08:18:21;99956.69;;;4.75;74.31
73633;BME280;61927;50.080;14.418;2024-02-14T08:20:48;99958.13;;;4.85;73.93
73633;BME280;61927;50.080;14.418;2024-02-14T08:23:14;99960.75;;;4.85;73.94
73633;BME280;61927;50.080;14.418;2024-02-14T08:25:39;99955.59;;;4.82;73.89
73633;BME280;61927;50.080;14.418;2024-02-14T08:28:07;99951.16;;;4.84;74.17
73633;BME280;61927;50.080;14.418;2024-02-14T08:30:33;99956.53;;;4.80;73.57
73633;BME280;61927;50.080;14.418;2024-02-14T08:32:59;99949.34;;;4.86;74.05
73633;BME280;61927;50.080;14.418;2024-02-14T08:35:24;99956.13;;;4.94;73.78
73633;BME280;61927;50.080;14.418;2024-02-14T08:37:50;99949.91;;;4.96;73.30
73633;BME280;61927;50.080;14.418;2024-02-14T08:40:15;99949.34;;;5.14;73.39
73633;BME280;61927;50.080;14.418;2024-02-14T08:42:41;99949.44;;;5.11;73.05
73633;BME280;61927;50.080;14.418;2024-02-14T08:45:07;99948.19;;;5.23;72.55
73633;BME280;61927;50.080;14.418;2024-02-14T08:47:34;99943.38;;;5.36;73.07
73633;BME280;61927;50.080;14.418;2024-02-14T08:49:59;99938.56;;;5.48;71.80
73633;BME280;61927;50.080;14.418;2024-02-14T08:52:25;99932.25;;;5.54;72.05
73633;BME280;61927;50.080;14.418;2024-02-14T08:54:52;99935.41;;;5.64;71.35
73633;BME280;61927;50.080;14.418;2024-02-14T08:57:17;99937.75;;;5.73;71.72
73633;BME280;61927;50.080;14.418;2024-02-14T08:59:44;99925.13;;;5.82;71.49
73633;BME280;61927;50.080;14.418;2024-02-14T09:02:12;99926.78;;;5.85;70.93
73633;BME280;61927;50.080;14.418;2024-02-14T09:04:39;99924.16;;;5.85;70.67
73633;BME280;61927;50.080;14.418;2024-02-14T09:07:06;99930.09;;;5.92;70.86
73633;BME280;61927;50.080;14.418;2024-02-14T09:09:32;99936.88;;;5.99;70.70
73633;BME280;61927;50.080;14.418;2024-02-14T09:11:58;99938.09;;;6.13;70.03
73633;BME280;61927;50.080;14.418;2024-02-14T09:14:28;99927.34;;;6.20;69.37
73633;BME280;61927;50.080;14.418;2024-02-14T09:16:54;99927.50;;;6.15;69.77
73633;BME280;61927;50.080;14.418;2024-02-14T09:19:19;99928.41;;;6.14;69.35
73633;BME280;61927;50.080;14.418;2024-02-14T09:21:45;99934.78;;;6.32;69.42
73633;BME280;61927;50.080;14.418;2024-02-14T09:24:10;99922.13;;;6.41;69.42
73633;BME280;61927;50.080;14.418;2024-02-14T09:26:37;99934.00;;;6.30;68.97
73633;BME280;61927;50.080;14.418;2024-02-14T09:29:03;99931.09;;;6.12;69.52
73633;BME280;61927;50.080;14.418;2024-02-14T09:31:29;99927.56;;;6.13;69.78
73633;BME280;61927;50.080;14.418;2024-02-14T09:33:54;99929.09;;;6.19;69.36
73633;BME280;61927;50.080;14.418;2024-02-14T09:36:22;99922.13;;;6.18;69.79
73633;BME280;61927;50.080;14.418;2024-02-14T09:38:49;99921.44;;;6.36;69.29
73633;BME280;61927;50.080;14.418;2024-02-14T09:41:25;99920.13;;;6.48;68.94
73633;BME280;61927;50.080;14.418;2024-02-14T09:43:51;99913.41;;;6.63;68.52
73633;BME280;61927;50.080;14.418;2024-02-14T09:46:17;99919.19;;;6.72;67.80
73633;BME280;61927;50.080;14.418;2024-02-14T09:48:44;99916.06;;;6.85;67.62
73633;BME280;61927;50.080;14.418;2024-02-14T09:51:14;99914.84;;;6.93;67.33
73633;BME280;61927;50.080;14.418;2024-02-14T09:53:40;99918.06;;;7.01;67.31
73633;BME280;61927;50.080;14.418;2024-02-14T09:56:09;99916.34;;;7.00;66.86
73633;BME280;61927;50.080;14.418;2024-02-14T09:58:35;99910.63;;;7.11;67.02
73633;BME280;61927;50.080;14.418;2024-02-14T10:01:02;99913.50;;;7.27;66.71
73633;BME280;61927;50.080;14.418;2024-02-14T10:03:27;99905.53;;;7.28;66.50
73633;BME280;61927;50.080;14.418;2024-02-14T10:05:53;99905.00;;;7.40;65.96
73633;BME280;61927;50.080;14.418;2024-02-14T10:08:19;99910.34;;;7.39;65.98
73633;BME280;61927;50.080;14.418;2024-02-14T10:10:46;99914.88;;;7.57;65.83
73633;BME280;61927;50.080;14.418;2024-02-14T10:13:13;99912.81;;;7.64;65.53
73633;BME280;61927;50.080;14.418;2024-02-14T10:15:38;99903.84;;;7.68;65.55
73633;BME280;61927;50.080;14.418;2024-02-14T10:18:04;99897.72;;;7.67;64.94
73633;BME280;61927;50.080;14.418;2024-02-14T10:20:30;99903.78;;;7.69;64.99
73633;BME280;61927;50.080;14.418;2024-02-14T10:23:03;99906.22;;;7.74;64.92
73633;BME280;61927;50.080;14.418;2024-02-14T10:25:29;99911.19;;;7.82;64.61
73633;BME280;61927;50.080;14.418;2024-02-14T10:27:56;99905.56;;;7.89;64.36
73633;BME280;61927;50.080;14.418;2024-02-14T10:30:22;99908.47;;;8.03;63.89
73633;BME280;61927;50.080;14.418;2024-02-14T10:32:48;99901.28;;;8.26;63.39
73633;BME280;61927;50.080;14.418;2024-02-14T10:35:14;99894.41;;;8.22;63.47
73633;BME280;61927;50.080;14.418;2024-02-14T10:37:41;99900.91;;;8.35;62.76
73633;BME280;61927;50.080;14.418;2024-02-14T10:40:08;99904.63;;;8.50;62.72
73633;BME280;61927;50.080;14.418;2024-02-14T10:42:34;99902.56;;;8.56;62.44
73633;BME280;61927;50.080;14.418;2024-02-14T10:45:01;99901.41;;;8.62;62.92
73633;BME280;61927;50.080;14.418;2024-02-14T10:47:36;99899.13;;;8.73;61.69
73633;BME280;61927;50.080;14.418;2024-02-14T10:50:06;99890.19;;;8.76;62.06
73633;BME280;61927;50.080;14.418;2024-02-14T10:52:34;99892.06;;;8.73;62.00
73633;BME280;61927;50.080;14.418;2024-02-14T10:55:04;99893.69;;;8.76;61.89
73633;BME280;61927;50.080;14.418;2024-02-14T10:57:31;99888.91;;;8.84;61.61
73633;BME280;61927;50.080;14.418;2024-02-14T11:00:06;99885.88;;;8.92;62.10
73633;BME280;61927;50.080;14.418;2024-02-14T11:02:35;99882.44;;;8.90;61.22
73633;BME280;61927;50.080;14.418;2024-02-14T11:05:02;99876.41;;;9.05;61.83
73633;BME280;61927;50.080;14.418;2024-02-14T11:07:28;99881.09;;;9.17;61.34
73633;BME280;61927;50.080;14.418;2024-02-14T11:12:36;99869.69;;;9.34;60.84
73633;BME280;61927;50.080;14.418;2024-02-14T11:15:35;99865.88;;;9.39;60.72
73633;BME280;61927;50.080;14.418;2024-02-14T11:18:03;99860.50;;;9.41;60.99
73633;BME280;61927;50.080;14.418;2024-02-14T11:20:34;99858.78;;;9.40;60.87
73633;BME280;61927;50.080;14.418;2024-02-14T11:23:02;99855.81;;;9.46;60.37
73633;BME280;61927;50.080;14.418;2024-02-14T11:25:33;99859.16;;;9.50;60.32
73633;BME280;61927;50.080;14.418;2024-02-14T11:28:24;99856.28;;;9.54;60.89
73633;BME280;61927;50.080;14.418;2024-02-14T11:30:51;99857.53;;;9.64;60.16
73633;BME280;61927;50.080;14.418;2024-02-14T11:35:49;99854.88;;;9.64;60.10
73633;BME280;61927;50.080;14.418;2024-02-14T11:38:23;99845.75;;;9.70;60.42
73633;BME280;61927;50.080;14.418;2024-02-14T11:40:53;99845.34;;;9.78;59.82
73633;BME280;61927;50.080;14.418;2024-02-14T11:43:20;99841.69;;;9.80;60.20
73633;BME280;61927;50.080;14.418;2024-02-14T11:45:46;99848.31;;;9.71;60.72
73633;BME280;61927;50.080;14.418;2024-02-14T11:48:15;99845.97;;;9.83;61.07
73633;BME280;61927;50.080;14.418;2024-02-14T11:50:43;99845.78;;;10.03;60.31
73633;BME280;61927;50.080;14.418;2024-02-14T11:53:14;99841.50;;;10.00;60.43
73633;BME280;61927;50.080;14.418;2024-02-14T11:55:43;99841.84;;;10.10;60.84
73633;BME280;61927;50.080;14.418;2024-02-14T11:58:12;99827.03;;;10.23;59.93
73633;BME280;61927;50.080;14.418;2024-02-14T12:00:46;99831.41;;;10.24;60.34
73633;BME280;61927;50.080;14.418;2024-02-14T12:03:22;99827.88;;;10.24;60.33
73633;BME280;61927;50.080;14.418;2024-02-14T12:05:51;99821.75;;;10.06;60.40
73633;BME280;61927;50.080;14.418;2024-02-14T12:08:16;99814.16;;;10.16;60.54
73633;BME280;61927;50.080;14.418;2024-02-14T12:10:44;99812.84;;;10.07;60.55
73633;BME280;61927;50.080;14.418;2024-02-14T12:13:15;99804.81;;;10.09;60.67
73633;BME280;61927;50.080;14.418;2024-02-14T12:15:45;99799.25;;;10.13;60.59
73633;BME280;61927;50.080;14.418;2024-02-14T12:18:11;99787.72;;;10.14;60.55
73633;BME280;61927;50.080;14.418;2024-02-14T12:20:41;99800.81;;;10.17;60.76
73633;BME280;61927;50.080;14.418;2024-02-14T12:23:06;99801.09;;;10.28;60.82
73633;BME280;61927;50.080;14.418;2024-02-14T12:25:33;99795.63;;;10.31;60.84
73633;BME280;61927;50.080;14.418;2024-02-14T12:27:59;99798.03;;;10.36;60.86
73633;BME280;61927;50.080;14.418;2024-02-14T12:30:47;99795.66;;;10.47;60.02
73633;BME280;61927;50.080;14.418;2024-02-14T12:33:15;99806.16;;;10.64;59.62
73633;BME280;61927;50.080;14.418;2024-02-14T12:35:45;99807.44;;;10.73;59.52
73633;BME280;61927;50.080;14.418;2024-02-14T12:38:12;99814.88;;;10.82;59.18
73633;BME280;61927;50.080;14.418;2024-02-14T12:40:39;99819.56;;;10.93;59.23
73633;BME280;61927;50.080;14.418;2024-02-14T12:43:09;99818.38;;;10.98;59.13
73633;BME280;61927;50.080;14.418;2024-02-14T12:45:34;99816.91;;;11.09;58.56
73633;BME280;61927;50.080;14.418;2024-02-14T12:48:00;99811.91;;;11.18;58.91
73633;BME280;61927;50.080;14.418;2024-02-14T12:50:26;99810.38;;;11.14;58.45
73633;BME280;61927;50.080;14.418;2024-02-14T12:52:52;99800.00;;;11.10;58.76
73633;BME280;61927;50.080;14.418;2024-02-14T12:55:18;99794.41;;;10.84;59.63
73633;BME280;61927;50.080;14.418;2024-02-14T12:57:45;99800.91;;;10.94;60.02
73633;BME280;61927;50.080;14.418;2024-02-14T13:00:11;99796.63;;;10.92;60.09
73633;BME280;61927;50.080;14.418;2024-02-14T13:02:37;99796.91;;;10.87;60.23